createdAt,value
2019-04-25T00:00:12.650Z,74.72
2019-04-25T00:02:44.799Z,74.87
2019-04-25T00:05:14.927Z,75.06
2019-04-25T00:07:44.964Z,74.92
2019-04-25T00:10:15.493Z,74.51
2019-04-25T00:12:45.707Z,74.43
2019-04-25T00:15:15.784Z,74.69
2019-04-25T00:17:46.212Z,74.11
2019-04-25T00:20:17.003Z,73.92
2019-04-25T00:22:57.606Z,73.98
2019-04-25T00:25:28.964Z,73.76
2019-04-25T00:27:58.734Z,74.46
2019-04-25T00:30:31.241Z,74.41
2019-04-25T00:33:02.022Z,73.96
2019-04-25T00:35:32.283Z,74.17
2019-04-25T00:38:02.480Z,74.24
2019-04-25T00:40:32.182Z,74.65
2019-04-25T00:43:02.066Z,74.59
2019-04-25T00:45:31.851Z,74.67
2019-04-25T00:48:04.092Z,74.52
2019-04-25T00:50:33.485Z,74.80
2019-04-25T00:53:03.310Z,75.06
2019-04-25T00:55:33.118Z,74.91
2019-04-25T00:58:05.230Z,74.54
2019-04-25T01:00:41.411Z,74.58
2019-04-25T01:03:12.965Z,74.89
2019-04-25T01:05:44.368Z,74.77
2019-04-25T01:08:15.844Z,74.92
2019-04-25T01:10:45.844Z,74.86
2019-04-25T01:13:15.829Z,74.89
2019-04-25T01:15:46.387Z,75.00
2019-04-25T01:18:16.609Z,74.95
2019-04-25T01:20:46.971Z,74.68
2019-04-25T01:23:16.793Z,74.96
2019-04-25T01:25:47.036Z,75.16
2019-04-25T01:28:17.563Z,75.16
2019-04-25T01:30:48.076Z,75.08
2019-04-25T01:33:18.474Z,74.97
2019-04-25T01:35:55.798Z,75.04
2019-04-25T01:38:27.265Z,74.94
2019-04-25T01:41:03.196Z,75.22
2019-04-25T01:43:43.945Z,75.21
2019-04-25T01:46:14.890Z,75.30
2019-04-25T01:48:44.993Z,75.33
2019-04-25T01:51:15.283Z,74.76
2019-04-25T01:53:45.043Z,74.60
2019-04-25T01:56:15.082Z,74.81
2019-04-25T01:58:44.759Z,74.63
2019-04-25T02:01:15.944Z,74.51
2019-04-25T02:03:45.730Z,74.47
2019-04-25T02:06:15.660Z,74.50
2019-04-25T02:08:45.492Z,74.74
2019-04-25T02:11:20.199Z,74.29
2019-04-25T02:13:51.280Z,74.41
2019-04-25T02:16:21.243Z,74.84
2019-04-25T02:18:51.026Z,74.79
2019-04-25T02:21:23.471Z,74.50
2019-04-25T02:23:55.409Z,73.46
2019-04-25T02:26:24.967Z,73.86
2019-04-25T02:28:55.176Z,73.93
2019-04-25T02:31:25.835Z,74.33
2019-04-25T02:33:57.857Z,73.64
2019-04-25T02:36:27.568Z,73.38
2019-04-25T02:39:01.151Z,73.82
2019-04-25T02:41:28.783Z,73.75
2019-04-25T02:44:02.994Z,73.36
2019-04-25T02:46:29.990Z,73.37
2019-04-25T02:49:28.907Z,73.60
2019-04-25T02:51:52.106Z,73.51
2019-04-25T02:54:24.443Z,73.30
2019-04-25T02:56:54.719Z,73.27
2019-04-25T02:59:25.520Z,72.61
2019-04-25T03:01:57.032Z,72.40
2019-04-25T03:04:27.026Z,72.81
2019-04-25T03:06:58.523Z,72.65
2019-04-25T03:09:28.744Z,72.23
2019-04-25T03:11:59.926Z,72.22
2019-04-25T03:14:30.003Z,71.73
2019-04-25T03:17:00.371Z,71.97
2019-04-25T03:19:34.439Z,71.87
2019-04-25T03:22:18.811Z,71.87
2019-04-25T03:24:48.618Z,72.04
2019-04-25T03:27:18.434Z,72.40
2019-04-25T03:29:48.189Z,72.08
2019-04-25T03:32:19.800Z,71.41
2019-04-25T03:34:49.475Z,71.43
2019-04-25T03:37:19.222Z,71.19
2019-04-25T03:39:48.866Z,70.97
2019-04-25T03:42:18.685Z,71.10
2019-04-25T03:44:49.753Z,70.62
2019-04-25T03:47:19.590Z,70.83
2019-04-25T03:49:49.298Z,70.43
2019-04-25T03:52:19.002Z,70.72
2019-04-25T03:54:48.730Z,70.59
2019-04-25T03:57:18.362Z,70.63
2019-04-25T03:59:48.156Z,70.07
2019-04-25T04:02:17.836Z,70.10
2019-04-25T04:04:47.745Z,70.46
2019-04-25T04:07:17.411Z,69.93
2019-04-25T04:09:47.266Z,69.27
2019-04-25T04:12:17.066Z,69.38
2019-04-25T04:14:46.804Z,68.98
2019-04-25T04:17:34.637Z,68.88
2019-04-25T04:20:06.840Z,69.23
2019-04-25T04:22:54.285Z,68.78
2019-04-25T04:25:24.489Z,68.89
2019-04-25T04:27:54.342Z,70.67
2019-04-25T04:30:24.236Z,68.75
2019-04-25T04:32:54.057Z,69.31
2019-04-25T04:35:23.729Z,67.43
2019-04-25T04:37:54.218Z,65.99
2019-04-25T04:40:24.365Z,65.92
2019-04-25T04:42:54.153Z,65.29
2019-04-25T04:45:24.019Z,64.89
2019-04-25T04:47:53.919Z,64.98
2019-04-25T04:50:25.304Z,64.97
2019-04-25T04:52:55.126Z,64.96
2019-04-25T04:55:25.388Z,65.11
2019-04-25T04:57:55.212Z,64.19
2019-04-25T05:00:26.652Z,63.92
2019-04-25T05:03:06.648Z,62.78
2019-04-25T05:05:43.978Z,63.01
2019-04-25T05:08:18.775Z,62.60
2019-04-25T05:10:48.477Z,63.01
2019-04-25T05:13:18.223Z,62.27
2019-04-25T05:15:48.277Z,62.03
2019-04-25T05:18:32.212Z,61.47
2019-04-25T05:20:49.543Z,60.24
2019-04-25T05:23:19.358Z,60.04
2019-04-25T05:25:49.238Z,58.90
2019-04-25T05:28:19.385Z,59.69
2019-04-25T05:30:50.733Z,58.70
2019-04-25T05:33:21.550Z,58.87
2019-04-25T05:35:51.940Z,58.88
2019-04-25T05:38:23.704Z,57.43
2019-04-25T05:40:54.734Z,56.93
2019-04-25T05:43:26.136Z,56.87
2019-04-25T05:45:55.891Z,56.09
2019-04-25T05:48:26.310Z,54.87
2019-04-25T05:50:56.248Z,55.77
2019-04-25T05:53:26.377Z,55.70
2019-04-25T05:55:56.093Z,55.06
2019-04-25T05:58:26.991Z,54.63
2019-04-25T06:00:56.927Z,54.60
2019-04-25T06:03:27.620Z,54.99
2019-04-25T06:05:57.489Z,55.54
2019-04-25T06:08:28.988Z,55.26
2019-04-25T06:11:06.139Z,55.56
2019-04-25T06:13:40.130Z,56.06
2019-04-25T06:16:13.954Z,56.24
2019-04-25T06:18:43.973Z,55.93
2019-04-25T06:21:14.724Z,55.80
2019-04-25T06:24:02.330Z,55.91
2019-04-25T06:26:39.293Z,56.04
2019-04-25T06:29:05.459Z,55.86
2019-04-25T06:31:35.113Z,55.65
2019-04-25T06:34:05.007Z,55.36
2019-04-25T06:36:35.380Z,55.20
2019-04-25T06:39:08.301Z,55.07
2019-04-25T06:41:37.982Z,54.98
2019-04-25T06:44:09.486Z,55.31
2019-04-25T06:46:41.361Z,55.44
2019-04-25T06:49:16.860Z,56.04
2019-04-25T06:51:50.843Z,56.10
2019-04-25T06:54:21.995Z,56.05
2019-04-25T06:56:53.551Z,56.00
2019-04-25T06:59:25.947Z,55.26
2019-04-25T07:01:56.199Z,55.44
2019-04-25T07:04:27.037Z,55.25
2019-04-25T07:07:09.347Z,55.50
2019-04-25T07:09:30.036Z,55.39
2019-04-25T07:12:00.639Z,55.48
2019-04-25T07:14:30.450Z,55.58
2019-04-25T07:17:00.126Z,55.85
2019-04-25T07:19:30.013Z,55.53
2019-04-25T07:22:00.818Z,55.22
2019-04-25T07:24:31.455Z,54.86
2019-04-25T07:27:13.811Z,53.85
2019-04-25T07:29:43.417Z,54.15
2019-04-25T07:32:14.864Z,54.31
2019-04-25T07:34:44.885Z,54.24
2019-04-25T07:37:14.689Z,54.74
2019-04-25T07:39:44.566Z,55.73
2019-04-25T07:42:14.384Z,54.81
2019-04-25T07:44:52.093Z,54.88
2019-04-25T07:47:15.937Z,55.25
2019-04-25T07:49:45.824Z,55.26
2019-04-25T07:52:15.988Z,55.41
2019-04-25T07:54:46.137Z,55.28
2019-04-25T07:57:15.915Z,55.55
2019-04-25T07:59:45.840Z,55.62
2019-04-25T08:02:15.652Z,55.43
2019-04-25T08:04:45.355Z,55.47
2019-04-25T08:07:15.332Z,55.29
2019-04-25T08:09:45.067Z,55.38
2019-04-25T08:12:14.964Z,55.15
2019-04-25T08:14:53.853Z,53.87
2019-04-25T08:17:42.072Z,53.18
2019-04-25T08:20:13.539Z,52.67
2019-04-25T08:22:55.720Z,51.59
2019-04-25T08:25:16.690Z,51.75
2019-04-25T08:27:46.434Z,51.25
2019-04-25T08:30:16.497Z,50.79
2019-04-25T08:32:46.355Z,50.53
2019-04-25T08:35:16.319Z,50.48
2019-04-25T08:37:46.065Z,50.32
2019-04-25T08:40:17.266Z,50.56
2019-04-25T08:42:46.887Z,51.32
2019-04-25T08:45:18.203Z,51.10
2019-04-25T08:47:47.880Z,51.78
2019-04-25T08:50:29.053Z,52.09
2019-04-25T08:52:54.805Z,51.70
2019-04-25T08:55:44.408Z,51.94
2019-04-25T08:58:19.332Z,51.68
2019-04-25T09:01:00.708Z,51.08
2019-04-25T09:03:44.806Z,51.34
2019-04-25T09:06:14.873Z,50.87
2019-04-25T09:08:46.557Z,50.90
2019-04-25T09:11:16.553Z,51.33
2019-04-25T09:13:46.635Z,51.07
2019-04-25T09:16:16.343Z,51.42
2019-04-25T09:18:46.485Z,51.01
2019-04-25T09:21:16.333Z,50.89
2019-04-25T09:23:46.187Z,51.14
2019-04-25T09:26:16.026Z,50.09
2019-04-25T09:28:46.679Z,50.28
2019-04-25T09:31:16.593Z,50.40
2019-04-25T09:33:46.762Z,50.45
2019-04-25T09:36:16.652Z,50.29
2019-04-25T09:38:48.508Z,50.60
2019-04-25T09:41:17.867Z,49.61
2019-04-25T09:43:48.695Z,49.78
2019-04-25T09:46:32.311Z,49.49
2019-04-25T09:49:08.372Z,49.99
2019-04-25T09:51:44.247Z,49.83
2019-04-25T09:54:19.302Z,49.02
2019-04-25T09:56:50.813Z,49.18
2019-04-25T09:59:27.880Z,48.95
2019-04-25T10:01:53.609Z,48.69
2019-04-25T10:04:23.437Z,48.79
2019-04-25T10:06:53.552Z,48.80
2019-04-25T10:09:23.962Z,48.17
2019-04-25T10:11:54.702Z,47.20
2019-04-25T10:14:54.643Z,47.26
2019-04-25T10:17:24.428Z,47.22
2019-04-25T10:19:54.268Z,47.64
2019-04-25T10:22:24.148Z,48.06
2019-04-25T10:25:00.215Z,48.22
2019-04-25T10:27:26.141Z,48.87
2019-04-25T10:29:57.204Z,49.00
2019-04-25T10:32:27.321Z,48.55
2019-04-25T10:34:57.098Z,48.64
2019-04-25T10:37:26.828Z,48.08
2019-04-25T10:39:56.557Z,48.11
2019-04-25T10:42:27.280Z,48.78
2019-04-25T10:44:57.004Z,48.87
2019-04-25T10:47:26.791Z,48.36
2019-04-25T10:49:59.026Z,47.75
2019-04-25T10:52:28.472Z,50.54
2019-04-25T10:54:58.295Z,49.13
2019-04-25T10:57:28.415Z,46.64
2019-04-25T11:00:06.213Z,46.46
2019-04-25T11:02:30.534Z,46.81
2019-04-25T11:05:04.765Z,46.69
2019-04-25T11:07:34.528Z,47.21
2019-04-25T11:10:06.147Z,46.34
2019-04-25T11:12:35.977Z,46.53
2019-04-25T11:15:07.478Z,46.33
2019-04-25T11:17:37.335Z,46.56
2019-04-25T11:20:07.824Z,46.74
2019-04-25T11:22:37.660Z,47.06
2019-04-25T11:25:08.118Z,46.19
2019-04-25T11:27:38.023Z,47.17
2019-04-25T11:30:11.467Z,46.24
2019-04-25T11:32:42.184Z,46.63
2019-04-25T11:35:13.948Z,46.92
2019-04-25T11:37:43.808Z,46.71
2019-04-25T11:40:23.421Z,46.32
2019-04-25T11:42:54.587Z,46.06
2019-04-25T11:45:24.856Z,45.69
2019-04-25T11:47:55.319Z,45.94
2019-04-25T11:50:25.466Z,45.83
2019-04-25T11:52:56.306Z,45.43
2019-04-25T11:55:26.354Z,44.62
2019-04-25T11:57:56.310Z,43.62
2019-04-25T12:00:30.197Z,43.39
2019-04-25T12:03:00.009Z,43.71
2019-04-25T12:05:30.299Z,44.20
2019-04-25T12:08:00.206Z,43.80
2019-04-25T12:10:30.285Z,44.56
2019-04-25T12:13:00.066Z,44.29
2019-04-25T12:15:29.759Z,44.78
2019-04-25T12:17:59.634Z,44.64
2019-04-25T12:20:29.361Z,44.32
2019-04-25T12:23:08.325Z,43.41
2019-04-25T12:25:30.510Z,44.42
2019-04-25T12:28:00.300Z,44.73
2019-04-25T12:30:38.086Z,44.22
2019-04-25T12:33:03.265Z,44.63
2019-04-25T12:35:33.388Z,44.42
2019-04-25T12:38:03.430Z,43.96
2019-04-25T12:40:34.325Z,43.18
2019-04-25T12:43:05.213Z,42.85
2019-04-25T12:45:52.911Z,43.35
2019-04-25T12:48:23.438Z,42.29
2019-04-25T12:50:54.269Z,41.78
2019-04-25T12:53:25.256Z,41.76
2019-04-25T12:55:54.990Z,42.12
2019-04-25T12:58:24.849Z,41.79
2019-04-25T13:00:58.297Z,41.11
2019-04-25T13:03:26.905Z,40.64
2019-04-25T13:05:56.753Z,40.16
2019-04-25T13:08:26.439Z,39.26
2019-04-25T13:11:07.527Z,39.51
2019-04-25T13:13:27.665Z,38.97
2019-04-25T13:15:57.524Z,39.37
2019-04-25T13:18:27.250Z,38.24
2019-04-25T13:20:57.503Z,38.53
2019-04-25T13:23:28.187Z,36.78
2019-04-25T13:25:57.925Z,36.00
2019-04-25T13:28:30.478Z,35.70
2019-04-25T13:31:14.850Z,35.86
2019-04-25T13:33:55.182Z,35.74
2019-04-25T13:36:25.260Z,34.98
2019-04-25T13:38:55.012Z,35.20
2019-04-25T13:41:24.865Z,35.53
2019-04-25T13:43:54.830Z,35.26
2019-04-25T13:46:26.248Z,35.62
2019-04-25T13:48:56.100Z,35.62
2019-04-25T13:51:26.244Z,35.88
2019-04-25T13:53:56.095Z,35.12
2019-04-25T13:56:27.154Z,35.86
2019-04-25T13:58:57.381Z,37.30
2019-04-25T14:01:27.645Z,37.91
2019-04-25T14:03:57.641Z,38.68
2019-04-25T14:06:28.393Z,38.79
2019-04-25T14:08:58.163Z,38.76
2019-04-25T14:11:28.131Z,38.50
2019-04-25T14:13:57.777Z,38.17
2019-04-25T14:16:28.126Z,37.94
2019-04-25T14:19:11.137Z,37.66
2019-04-25T14:21:40.960Z,37.85
2019-04-25T14:24:20.236Z,37.37
2019-04-25T14:26:42.749Z,37.59
2019-04-25T14:29:14.081Z,37.29
2019-04-25T14:31:48.223Z,37.90
2019-04-25T14:34:15.478Z,38.02
2019-04-25T14:36:45.219Z,38.24
2019-04-25T14:39:16.768Z,38.48
2019-04-25T14:41:46.516Z,38.53
2019-04-25T14:44:16.197Z,38.38
2019-04-25T14:46:45.912Z,38.32
2019-04-25T14:49:15.704Z,39.04
2019-04-25T14:51:45.543Z,39.43
2019-04-25T14:54:26.372Z,39.36
2019-04-25T14:56:56.310Z,39.42
2019-04-25T14:59:26.492Z,39.99
2019-04-25T15:01:56.775Z,40.05
2019-04-25T15:04:26.594Z,40.55
2019-04-25T15:06:56.405Z,40.41
2019-04-25T15:09:26.814Z,40.70
2019-04-25T15:11:56.808Z,40.74
2019-04-25T15:14:26.920Z,40.89
2019-04-25T15:16:56.600Z,41.15
2019-04-25T15:19:27.462Z,41.35
2019-04-25T15:21:57.288Z,41.11
2019-04-25T15:24:27.084Z,41.23
2019-04-25T15:26:56.927Z,41.34
2019-04-25T15:29:26.600Z,41.47
2019-04-25T15:31:56.407Z,41.69
2019-04-25T15:34:27.714Z,41.74
2019-04-25T15:37:01.956Z,41.54
2019-04-25T15:39:37.626Z,41.59
2019-04-25T15:42:10.611Z,41.62
2019-04-25T15:44:45.010Z,41.93
2019-04-25T15:47:16.397Z,42.23
2019-04-25T15:49:46.077Z,42.76
2019-04-25T15:52:16.094Z,42.38
2019-04-25T15:54:45.860Z,42.59
2019-04-25T15:57:15.882Z,42.84
2019-04-25T15:59:45.626Z,43.07
2019-04-25T16:02:15.934Z,43.29
2019-04-25T16:04:45.607Z,44.86
2019-04-25T16:07:16.332Z,45.93
2019-04-25T16:09:46.097Z,46.67
2019-04-25T16:12:16.598Z,46.93
2019-04-25T16:14:46.255Z,47.65
2019-04-25T16:17:16.214Z,48.07
2019-04-25T16:19:46.063Z,48.22
2019-04-25T16:22:15.809Z,48.32
2019-04-25T16:24:45.733Z,48.21
2019-04-25T16:27:16.226Z,48.81
2019-04-25T16:29:45.994Z,48.90
2019-04-25T16:32:20.844Z,48.78
2019-04-25T16:34:48.992Z,49.35
2019-04-25T16:37:18.783Z,49.46
2019-04-25T16:39:48.641Z,49.73
2019-04-25T16:42:18.389Z,50.13
2019-04-25T16:44:48.136Z,50.47
2019-04-25T16:47:19.516Z,50.69
2019-04-25T16:49:49.258Z,50.73
2019-04-25T16:52:19.331Z,51.13
2019-04-25T16:54:49.065Z,51.28
2019-04-25T16:57:18.998Z,51.58
2019-04-25T16:59:48.881Z,52.14
2019-04-25T17:02:19.135Z,52.54
2019-04-25T17:04:48.821Z,52.58
2019-04-25T17:07:18.729Z,53.37
2019-04-25T17:09:48.493Z,53.90
2019-04-25T17:12:18.396Z,53.98
2019-04-25T17:15:01.838Z,54.48
2019-04-25T17:17:35.980Z,54.58
2019-04-25T17:20:17.552Z,54.37
2019-04-25T17:22:47.425Z,54.23
2019-04-25T17:25:17.957Z,54.44
2019-04-25T17:27:47.661Z,54.86
2019-04-25T17:30:19.010Z,54.74
2019-04-25T17:32:56.679Z,54.61
2019-04-25T17:35:31.874Z,54.15
2019-04-25T17:38:15.376Z,53.74
2019-04-25T17:40:45.261Z,52.50
2019-04-25T17:43:15.107Z,50.43
2019-04-25T17:45:44.828Z,49.48
2019-04-25T17:48:14.724Z,50.11
2019-04-25T17:50:45.143Z,49.90
2019-04-25T17:53:14.927Z,49.87
2019-04-25T17:55:44.711Z,50.57
2019-04-25T17:58:14.425Z,51.00
2019-04-25T18:00:46.000Z,51.83
2019-04-25T18:03:16.054Z,52.27
2019-04-25T18:05:46.202Z,53.72
2019-04-25T18:08:16.231Z,54.17
2019-04-25T18:10:46.313Z,53.95
2019-04-25T18:13:16.122Z,54.36
2019-04-25T18:15:53.856Z,54.60
2019-04-25T18:18:41.582Z,54.42
2019-04-25T18:21:11.501Z,55.09
2019-04-25T18:23:51.628Z,56.26
2019-04-25T18:26:25.783Z,57.37
2019-04-25T18:28:57.230Z,58.06
2019-04-25T18:31:26.993Z,58.82
2019-04-25T18:33:58.322Z,59.33
2019-04-25T18:36:45.998Z,60.06
2019-04-25T18:39:20.181Z,60.56
2019-04-25T18:41:57.686Z,61.15
2019-04-25T18:44:27.482Z,61.20
2019-04-25T18:46:57.178Z,61.43
2019-04-25T18:49:27.045Z,61.92
2019-04-25T18:51:58.521Z,62.11
2019-04-25T18:54:48.312Z,62.67
2019-04-25T18:57:22.692Z,62.97
2019-04-25T19:00:05.875Z,63.13
2019-04-25T19:02:49.118Z,63.34
2019-04-25T19:05:29.044Z,62.76
2019-04-25T19:07:58.690Z,63.27
2019-04-25T19:10:28.617Z,64.78
2019-04-25T19:13:11.822Z,66.71
2019-04-25T19:15:30.162Z,67.90
2019-04-25T19:18:00.007Z,68.53
2019-04-25T19:20:29.817Z,69.49
2019-04-25T19:22:59.663Z,70.04
2019-04-25T19:25:29.375Z,71.21
2019-04-25T19:27:59.221Z,71.86
2019-04-25T19:30:29.172Z,72.75
2019-04-25T19:32:58.954Z,73.00
2019-04-25T19:35:28.640Z,73.13
2019-04-25T19:37:59.004Z,73.29
2019-04-25T19:40:30.499Z,73.67
2019-04-25T19:43:01.840Z,73.61
2019-04-25T19:45:33.340Z,73.55
2019-04-25T19:48:03.188Z,74.25
2019-04-25T19:50:32.918Z,74.19
2019-04-25T19:53:02.703Z,73.93
2019-04-25T19:55:32.482Z,74.61
2019-04-25T19:58:02.128Z,75.09
2019-04-25T20:00:31.938Z,75.19
2019-04-25T20:03:03.192Z,75.44
2019-04-25T20:05:34.578Z,75.44
2019-04-25T20:08:06.103Z,74.96
2019-04-25T20:10:40.617Z,74.80
2019-04-25T20:13:10.241Z,74.81
2019-04-25T20:15:40.097Z,74.79
2019-04-25T20:18:09.766Z,75.04
2019-04-25T20:20:39.452Z,74.72
2019-04-25T20:23:09.158Z,73.78
2019-04-25T20:25:38.887Z,74.47
2019-04-25T20:28:08.688Z,74.74
2019-04-25T20:30:38.394Z,75.65
2019-04-25T20:33:08.128Z,75.68
2019-04-25T20:35:37.801Z,75.66
2019-04-25T20:38:07.677Z,76.10
2019-04-25T20:40:37.365Z,75.87
2019-04-25T20:43:07.136Z,75.87
2019-04-25T20:45:37.181Z,76.16
2019-04-25T20:48:06.985Z,76.41
2019-04-25T20:50:36.679Z,76.39
2019-04-25T20:53:06.559Z,76.72
2019-04-25T20:55:36.323Z,76.95
2019-04-25T20:58:06.049Z,76.83
2019-04-25T21:00:48.330Z,76.70
2019-04-25T21:03:18.339Z,76.63
2019-04-25T21:05:50.953Z,76.27
2019-04-25T21:08:20.697Z,76.14
2019-04-25T21:10:50.675Z,75.83
2019-04-25T21:13:23.084Z,75.61
2019-04-25T21:15:54.435Z,74.82
2019-04-25T21:18:34.567Z,74.39
2019-04-25T21:21:04.421Z,74.72
2019-04-25T21:23:34.071Z,74.64
2019-04-25T21:26:03.931Z,75.09
2019-04-25T21:28:33.667Z,75.49
2019-04-25T21:31:03.528Z,76.03
2019-04-25T21:33:33.317Z,76.27
2019-04-25T21:36:03.405Z,76.16
2019-04-25T21:38:33.497Z,75.85
2019-04-25T21:41:13.738Z,75.75
2019-04-25T21:43:47.760Z,75.79
2019-04-25T21:46:17.761Z,75.94
2019-04-25T21:48:47.867Z,76.17
2019-04-25T21:51:32.927Z,76.31
2019-04-25T21:54:04.408Z,76.24
2019-04-25T21:56:34.444Z,75.74
2019-04-25T21:59:04.242Z,75.90
2019-04-25T22:01:38.813Z,75.62
2019-04-25T22:04:09.157Z,75.66
2019-04-25T22:06:39.507Z,75.47
2019-04-25T22:09:12.462Z,75.84
2019-04-25T22:11:42.481Z,76.03
2019-04-25T22:14:13.201Z,75.98
2019-04-25T22:16:43.309Z,75.49
2019-04-25T22:19:13.447Z,75.14
2019-04-25T22:21:43.476Z,74.66
2019-04-25T22:24:15.069Z,74.64
2019-04-25T22:26:45.286Z,74.29
2019-04-25T22:29:15.086Z,74.45
2019-04-25T22:31:52.273Z,74.90
2019-04-25T22:34:26.573Z,74.82
2019-04-25T22:36:56.191Z,74.74
2019-04-25T22:39:25.928Z,74.89
2019-04-25T22:41:56.073Z,75.50
2019-04-25T22:44:26.068Z,75.29
2019-04-25T22:46:56.229Z,74.61
2019-04-25T22:49:26.198Z,74.81
2019-04-25T22:51:56.051Z,75.02
2019-04-25T22:54:27.430Z,75.23
2019-04-25T22:56:57.182Z,75.34
2019-04-25T22:59:27.324Z,75.32
2019-04-25T23:02:00.833Z,75.12
2019-04-25T23:04:49.155Z,75.54
2019-04-25T23:07:19.158Z,75.28
2019-04-25T23:09:50.270Z,75.31
2019-04-25T23:12:20.340Z,77.08
2019-04-25T23:14:51.288Z,77.57
2019-04-25T23:17:20.978Z,77.71
2019-04-25T23:19:51.036Z,77.78
2019-04-25T23:22:20.686Z,77.67
2019-04-25T23:24:54.986Z,77.12
2019-04-25T23:27:30.011Z,78.07
2019-04-25T23:29:59.701Z,78.31
2019-04-25T23:32:29.685Z,78.23
2019-04-25T23:34:59.572Z,78.35
2019-04-25T23:37:29.235Z,77.85
2019-04-25T23:39:59.009Z,77.57
2019-04-25T23:42:28.686Z,77.74
2019-04-25T23:44:58.814Z,77.58
2019-04-25T23:47:28.549Z,77.38
2019-04-25T23:49:58.744Z,77.33
2019-04-25T23:52:28.526Z,77.53
2019-04-25T23:54:58.282Z,77.99
2019-04-25T23:57:28.019Z,77.89
2019-04-25T23:59:57.762Z,77.61
